Time;durP1;ratioP1;P1;durP2;ratioP2;P2;SDS_P1;SDS_P2;PMS_P1;PMS_P2;Temp;Humidity;BMP_temperature;BMP_pressure;BME280_temperature;BME280_humidity;BME280_pressure;Samples;Min_cycle;Max_cycle;Signal;HPM_P1;HPM_P2
2022/11/04 00:01:50;;;;;;;13.32;10.55;;;12.50;99.90;;;;;;5048245;28;20106;-67
2022/11/04 00:04:18;;;;;;;12.30;10.98;;;12.50;99.90;;;;;;5053620;28;20041;-67
2022/11/04 00:06:44;;;;;;;15.52;11.70;;;12.50;99.90;;;;;;5056508;28;20057;-67
2022/11/04 00:09:16;;;;;;;14.23;10.57;;;12.40;99.90;;;;;;5049068;28;20052;-67
2022/11/04 00:14:28;;;;;;;11.18;9.05;;;12.40;99.90;;;;;;5038684;28;20055;-67
2022/11/04 00:30:52;;;;;;;11.13;7.07;;;12.00;99.90;;;;;;5053974;28;20108;-67
2022/11/04 00:33:27;;;;;;;9.65;5.80;;;11.90;99.90;;;;;;5063724;28;20075;-67
2022/11/04 00:35:56;;;;;;;6.65;4.82;;;11.80;99.90;;;;;;5066533;28;20076;-67
2022/11/04 00:38:25;;;;;;;5.97;5.32;;;11.70;99.90;;;;;;5047283;28;20052;-67
2022/11/04 00:40:51;;;;;;;5.63;4.78;;;11.70;99.90;;;;;;5066265;28;20055;-67
2022/11/04 00:43:16;;;;;;;5.75;5.13;;;11.60;99.90;;;;;;5031530;28;20151;-67
2022/11/04 00:45:42;;;;;;;5.35;4.50;;;11.60;99.90;;;;;;5065081;28;20521;-67
2022/11/04 00:48:08;;;;;;;5.25;4.10;;;11.40;99.90;;;;;;5065331;28;20040;-67
2022/11/04 00:50:35;;;;;;;5.22;4.30;;;11.40;99.90;;;;;;5056159;28;20056;-67
2022/11/04 00:53:02;;;;;;;4.20;3.58;;;11.30;99.90;;;;;;5047045;28;20048;-67
2022/11/04 00:55:28;;;;;;;6.15;3.78;;;11.30;99.90;;;;;;5044250;28;20052;-67
2022/11/04 00:57:54;;;;;;;7.35;3.35;;;11.30;99.90;;;;;;5068410;28;20044;-67
2022/11/04 01:00:20;;;;;;;5.40;3.63;;;11.30;99.90;;;;;;5054084;28;20033;-67
2022/11/04 01:02:46;;;;;;;5.47;3.20;;;11.10;99.90;;;;;;5051452;28;20067;-67
2022/11/04 01:05:12;;;;;;;5.15;3.85;;;11.10;99.90;;;;;;5035907;28;20047;-67
2022/11/04 01:07:38;;;;;;;5.50;3.65;;;11.00;99.90;;;;;;5064715;28;20045;-67
2022/11/04 01:10:05;;;;;;;3.67;3.15;;;11.00;99.90;;;;;;5057362;28;20072;-67
2022/11/04 01:12:30;;;;;;;5.57;3.00;;;11.00;99.90;;;;;;5059307;28;20049;-67
2022/11/04 01:14:56;;;;;;;4.15;2.80;;;10.90;99.90;;;;;;5047645;28;20084;-67
2022/11/04 01:17:22;;;;;;;3.28;2.10;;;10.90;99.90;;;;;;5065636;28;20120;-67
2022/11/04 01:19:48;;;;;;;2.30;1.92;;;10.90;99.90;;;;;;5048609;28;20048;-67
2022/11/04 01:22:13;;;;;;;4.15;1.10;;;11.00;99.90;;;;;;5065149;28;20071;-67
2022/11/04 01:24:39;;;;;;;1.00;0.90;;;11.00;99.90;;;;;;5042792;28;20165;-67
2022/11/04 01:27:05;;;;;;;3.65;1.00;;;11.00;99.90;;;;;;5044713;28;20133;-67
2022/11/04 01:29:30;;;;;;;1.00;1.00;;;11.00;99.90;;;;;;5071526;28;20047;-67
2022/11/04 01:31:56;;;;;;;3.25;0.77;;;11.00;99.90;;;;;;5055178;28;20044;-67
2022/11/04 01:34:21;;;;;;;1.05;0.60;;;10.80;99.90;;;;;;5046331;28;20052;-67
2022/11/04 01:36:47;;;;;;;0.60;0.57;;;10.80;99.90;;;;;;5072338;28;20075;-67
2022/11/04 01:39:13;;;;;;;0.70;0.70;;;10.80;99.90;;;;;;5045362;28;20044;-67
2022/11/04 01:41:39;;;;;;;1.48;0.80;;;10.70;99.90;;;;;;5044217;28;20077;-67
2022/11/04 01:44:42;;;;;;;1.67;1.17;;;10.70;99.90;;;;;;5045184;28;20041;-67
2022/11/04 01:47:35;;;;;;;1.23;0.90;;;10.80;99.90;;;;;;5066039;28;20049;-67
2022/11/04 01:50:09;;;;;;;1.08;0.70;;;10.70;99.90;;;;;;5058424;28;20091;-67
2022/11/04 01:52:44;;;;;;;1.90;0.73;;;10.70;99.90;;;;;;5048541;28;20090;-67
2022/11/04 01:55:16;;;;;;;3.88;0.90;;;10.70;99.90;;;;;;5079492;28;20127;-67
2022/11/04 01:57:46;;;;;;;2.03;0.80;;;10.70;99.90;;;;;;5066286;28;20079;-67
2022/11/04 02:00:12;;;;;;;1.52;0.80;;;10.70;99.90;;;;;;5080086;28;20040;-67
2022/11/04 02:03:03;;;;;;;2.58;1.10;;;10.70;99.90;;;;;;5078310;28;20052;-67
2022/11/04 02:05:29;;;;;;;5.00;1.10;;;10.70;99.90;;;;;;5074973;28;20519;-67
2022/11/04 02:08:00;;;;;;;1.60;1.00;;;10.70;99.90;;;;;;5077835;28;20072;-67
2022/11/04 02:10:27;;;;;;;2.97;1.10;;;10.70;99.90;;;;;;5063067;28;20645;-67
2022/11/04 02:12:54;;;;;;;3.53;1.27;;;10.70;99.90;;;;;;5086311;28;20447;-67
2022/11/04 02:15:46;;;;;;;1.98;1.15;;;10.70;99.90;;;;;;5072805;28;20055;-67
2022/11/04 02:18:21;;;;;;;4.10;1.20;;;10.80;99.90;;;;;;5071591;28;20100;-67
2022/11/04 02:21:16;;;;;;;2.20;1.10;;;10.80;99.90;;;;;;5073303;28;20060;-67
2022/11/04 02:24:20;;;;;;;4.05;1.30;;;10.80;99.90;;;;;;5045252;28;20556;-67
2022/11/04 02:27:02;;;;;;;3.15;1.50;;;10.80;99.90;;;;;;5031999;28;20049;-67
2022/11/04 02:29:49;;;;;;;4.53;1.30;;;10.90;99.90;;;;;;5084542;28;20115;-67
2022/11/04 02:32:33;;;;;;;5.43;1.20;;;10.90;99.90;;;;;;5072851;28;20109;-67
2022/11/04 02:35:09;;;;;;;3.03;1.20;;;10.80;99.90;;;;;;5069831;28;20052;-67
2022/11/04 02:37:42;;;;;;;3.08;1.70;;;10.90;99.90;;;;;;5072416;28;20041;-67
2022/11/04 02:40:33;;;;;;;2.75;0.88;;;10.80;99.90;;;;;;5066489;28;20070;-67
2022/11/04 02:43:09;;;;;;;4.32;0.90;;;10.80;99.90;;;;;;5066817;28;20044;-67
2022/11/04 02:45:45;;;;;;;3.78;0.90;;;10.70;99.90;;;;;;5089160;28;20453;-67
2022/11/04 02:48:25;;;;;;;2.28;0.90;;;10.80;99.90;;;;;;5090082;28;20101;-67
2022/11/04 02:50:59;;;;;;;1.45;1.00;;;10.80;99.90;;;;;;5073102;28;20040;-67
2022/11/04 02:53:32;;;;;;;2.67;1.25;;;10.80;99.90;;;;;;5071362;28;20066;-67
2022/11/04 02:56:00;;;;;;;2.33;1.10;;;10.80;99.90;;;;;;5091029;28;20450;-67
2022/11/04 02:58:36;;;;;;;1.55;1.10;;;10.80;99.90;;;;;;5086902;28;20045;-67
2022/11/04 03:01:05;;;;;;;1.85;0.90;;;10.70;99.90;;;;;;5071265;28;20092;-67
2022/11/04 03:03:37;;;;;;;1.83;0.88;;;10.70;99.90;;;;;;5072148;28;20056;-67
2022/11/04 03:06:05;;;;;;;1.63;0.80;;;10.70;99.90;;;;;;5085362;28;20036;-67
2022/11/04 03:08:46;;;;;;;2.92;0.70;;;10.70;99.90;;;;;;5072600;28;20087;-67
2022/11/04 03:11:16;;;;;;;3.28;0.85;;;10.60;99.90;;;;;;5088424;28;20127;-67
2022/11/04 03:13:45;;;;;;;4.82;1.10;;;10.70;99.90;;;;;;5072800;28;20052;-67
2022/11/04 03:16:15;;;;;;;3.72;1.10;;;10.70;99.90;;;;;;5069543;28;20531;-67
2022/11/04 03:19:12;;;;;;;3.78;1.75;;;10.70;99.90;;;;;;5070357;28;20045;-67
2022/11/04 03:21:53;;;;;;;4.28;1.65;;;10.70;99.90;;;;;;5072369;28;20056;-67
2022/11/04 03:24:18;;;;;;;3.17;1.50;;;10.70;99.90;;;;;;5069888;28;20079;-67
2022/11/04 03:27:00;;;;;;;2.58;1.15;;;10.70;99.90;;;;;;5068691;28;20056;-67
2022/11/04 03:29:30;;;;;;;2.63;1.38;;;10.80;99.90;;;;;;5081251;28;20095;-67
2022/11/04 03:32:16;;;;;;;2.70;1.10;;;10.70;99.90;;;;;;5063656;28;20048;-67
2022/11/04 03:34:42;;;;;;;2.72;1.17;;;10.70;99.90;;;;;;5068963;28;20049;-67
2022/11/04 03:37:09;;;;;;;4.65;1.33;;;10.60;99.90;;;;;;5084098;28;20452;-67
2022/11/04 03:39:35;;;;;;;3.25;1.65;;;10.60;99.90;;;;;;5071466;28;20040;-67
2022/11/04 03:42:18;;;;;;;2.72;1.80;;;10.60;99.90;;;;;;5088408;28;20049;-67
2022/11/04 03:44:50;;;;;;;4.18;1.48;;;10.60;99.90;;;;;;5094754;28;20048;-67
2022/11/04 03:47:18;;;;;;;2.45;1.73;;;10.60;99.90;;;;;;5089939;28;20051;-67
2022/11/04 03:49:46;;;;;;;3.72;1.60;;;10.50;99.90;;;;;;5087643;28;20044;-67
2022/11/04 03:52:12;;;;;;;4.53;2.15;;;10.40;99.90;;;;;;5071076;28;20051;-67
2022/11/04 03:54:38;;;;;;;5.20;1.95;;;10.50;99.90;;;;;;5065587;28;20148;-67
2022/11/04 03:57:25;;;;;;;5.78;2.00;;;10.50;99.90;;;;;;5084759;28;20048;-67
2022/11/04 04:00:11;;;;;;;5.38;1.73;;;10.40;99.90;;;;;;5085406;28;20100;-67
2022/11/04 04:02:49;;;;;;;3.00;1.40;;;10.30;99.90;;;;;;5068912;28;20076;-67
2022/11/04 04:05:37;;;;;;;2.58;1.08;;;10.20;99.90;;;;;;5070415;28;20047;-67
2022/11/04 04:08:21;;;;;;;2.95;1.02;;;10.10;99.90;;;;;;5085789;28;20065;-67
2022/11/04 04:11:18;;;;;;;3.45;1.20;;;10.10;99.90;;;;;;5089461;28;20464;-67
2022/11/04 04:13:56;;;;;;;4.90;1.35;;;10.10;99.90;;;;;;5071634;28;20131;-68
2022/11/04 04:16:42;;;;;;;3.65;1.00;;;10.00;99.90;;;;;;5087818;28;20078;-68
2022/11/04 04:19:12;;;;;;;4.00;0.90;;;9.90;99.90;;;;;;5066313;28;20412;-68
2022/11/04 04:21:46;;;;;;;2.35;0.70;;;9.90;99.90;;;;;;5089664;28;20052;-68
2022/11/04 04:29:49;;;;;;;2.92;0.70;;;9.70;99.90;;;;;;5078758;28;20064;-68
2022/11/04 04:32:16;;;;;;;3.58;0.60;;;9.80;99.90;;;;;;5052011;28;20049;-68
2022/11/04 04:34:42;;;;;;;2.30;0.60;;;9.70;99.90;;;;;;5049039;28;20086;-68
2022/11/04 04:37:19;;;;;;;1.63;0.55;;;9.80;99.90;;;;;;5051144;28;20044;-68
2022/11/04 04:45:35;;;;;;;2.97;0.80;;;9.80;99.90;;;;;;5085845;28;20082;-68
2022/11/04 04:48:01;;;;;;;1.83;0.88;;;9.80;99.90;;;;;;5084123;28;20044;-68
2022/11/04 04:50:34;;;;;;;2.63;0.60;;;9.70;99.90;;;;;;5091894;28;20037;-68
2022/11/04 04:53:00;;;;;;;4.30;0.93;;;9.90;99.90;;;;;;5087374;28;20093;-68
2022/11/04 04:55:26;;;;;;;1.10;0.50;;;9.80;99.90;;;;;;5082037;28;20056;-68
2022/11/04 04:57:51;;;;;;;1.52;0.50;;;9.80;99.90;;;;;;5068904;28;20040;-68
2022/11/04 05:00:19;;;;;;;2.80;0.40;;;9.80;99.90;;;;;;5084656;28;20048;-68
2022/11/04 05:02:45;;;;;;;2.15;0.80;;;9.80;99.90;;;;;;5092856;28;20029;-68
2022/11/04 05:05:15;;;;;;;1.73;0.70;;;9.80;99.90;;;;;;5059178;28;20044;-68
2022/11/04 05:07:41;;;;;;;1.43;0.60;;;9.80;99.90;;;;;;5079703;28;20052;-68
2022/11/04 05:10:08;;;;;;;2.50;0.90;;;9.80;99.90;;;;;;5065195;28;20076;-68
2022/11/04 05:15:19;;;;;;;0.70;0.60;;;9.80;99.90;;;;;;5091849;28;20082;-68
2022/11/04 05:17:44;;;;;;;1.58;0.68;;;9.70;99.90;;;;;;5066468;28;20057;-68
2022/11/04 05:20:11;;;;;;;1.27;0.63;;;9.70;99.90;;;;;;5072573;28;20107;-68
2022/11/04 05:22:36;;;;;;;3.05;0.90;;;9.70;99.90;;;;;;5091715;28;20052;-68
2022/11/04 05:25:02;;;;;;;1.70;0.60;;;9.80;99.90;;;;;;5059892;28;20084;-68
2022/11/04 05:27:28;;;;;;;6.50;0.77;;;9.70;99.90;;;;;;5067070;28;20040;-68
2022/11/04 05:29:54;;;;;;;1.35;0.50;;;9.70;99.90;;;;;;5087082;28;20104;-68
2022/11/04 05:32:19;;;;;;;1.55;0.55;;;9.70;99.90;;;;;;5071961;28;20071;-67
2022/11/04 05:34:46;;;;;;;3.70;0.75;;;9.70;99.90;;;;;;5079128;28;20492;-68
2022/11/04 05:37:12;;;;;;;1.25;0.60;;;9.70;99.90;;;;;;5075584;28;20610;-68
2022/11/04 05:39:38;;;;;;;4.15;0.70;;;9.60;99.90;;;;;;5075222;28;20044;-68
2022/11/04 05:42:03;;;;;;;5.13;0.88;;;9.60;99.90;;;;;;5067146;28;20404;-68
2022/11/04 05:44:29;;;;;;;1.50;0.68;;;9.50;99.90;;;;;;5079181;28;20083;-68
2022/11/04 05:46:55;;;;;;;0.82;0.70;;;9.50;99.90;;;;;;5100694;28;20131;-68
2022/11/04 05:49:20;;;;;;;3.10;1.20;;;9.50;99.90;;;;;;5084121;28;20068;-68
2022/11/04 05:51:46;;;;;;;4.65;2.55;;;9.40;99.90;;;;;;5080818;28;20041;-68
2022/11/04 05:54:12;;;;;;;1.45;0.98;;;9.40;99.90;;;;;;5065438;28;20048;-67
2022/11/04 05:56:37;;;;;;;2.75;1.17;;;9.40;99.90;;;;;;5071772;28;20048;-67
2022/11/04 05:59:03;;;;;;;1.23;0.90;;;9.40;99.90;;;;;;5088999;28;20539;-68
2022/11/04 06:01:35;;;;;;;2.72;1.17;;;9.30;99.90;;;;;;5093051;28;20511;-67
2022/11/04 06:04:04;;;;;;;2.15;0.75;;;9.30;99.90;;;;;;5069601;28;20053;-68
2022/11/04 06:06:32;;;;;;;2.42;0.80;;;9.20;99.90;;;;;;5089813;28;20052;-68
2022/11/04 06:08:58;;;;;;;1.83;0.88;;;9.20;99.90;;;;;;5087693;28;20044;-67
2022/11/04 06:11:26;;;;;;;1.50;1.02;;;9.10;99.90;;;;;;5072711;28;20052;-67
2022/11/04 06:13:54;;;;;;;3.75;1.10;;;9.20;99.90;;;;;;5082819;28;20059;-63
2022/11/04 06:16:19;;;;;;;3.75;1.40;;;9.10;99.90;;;;;;5062295;28;20049;-62
2022/11/04 06:18:45;;;;;;;2.13;1.00;;;9.10;99.90;;;;;;5031837;28;20056;-65
2022/11/04 06:21:13;;;;;;;2.05;1.00;;;9.20;99.90;;;;;;5082698;28;20141;-66
2022/11/04 06:23:40;;;;;;;1.52;0.82;;;9.10;99.90;;;;;;5057691;28;20048;-65
2022/11/04 06:26:06;;;;;;;3.83;1.10;;;9.10;99.90;;;;;;5068033;28;20044;-65
2022/11/04 06:28:32;;;;;;;3.15;1.30;;;9.10;99.90;;;;;;5045829;28;20550;-63
2022/11/04 06:31:00;;;;;;;3.15;1.10;;;9.00;99.90;;;;;;5047440;28;20052;-63
2022/11/04 06:33:27;;;;;;;1.80;0.77;;;9.00;99.90;;;;;;5060368;28;20144;-63
2022/11/04 06:35:57;;;;;;;3.65;0.80;;;9.00;99.90;;;;;;5057713;28;20076;-63
2022/11/04 06:38:22;;;;;;;1.88;0.80;;;8.90;99.90;;;;;;5060139;28;20053;-66
2022/11/04 06:40:48;;;;;;;2.22;1.00;;;8.90;99.90;;;;;;5050936;28;20170;-66
2022/11/04 06:43:13;;;;;;;1.35;0.90;;;8.90;99.90;;;;;;5058445;28;20055;-66
2022/11/04 06:45:39;;;;;;;4.50;0.88;;;8.90;99.90;;;;;;5034268;28;20098;-66
2022/11/04 06:48:05;;;;;;;1.83;1.13;;;8.90;99.90;;;;;;5061161;28;20052;-65
2022/11/04 06:50:31;;;;;;;2.03;0.90;;;8.90;99.90;;;;;;5060964;28;20060;-65
2022/11/04 06:52:56;;;;;;;2.72;1.13;;;8.90;99.90;;;;;;5066290;28;20096;-67
2022/11/04 06:55:22;;;;;;;2.65;0.90;;;9.00;99.90;;;;;;5042678;28;20293;-66
2022/11/04 06:57:48;;;;;;;3.55;0.90;;;8.90;99.90;;;;;;5067230;28;20058;-66
2022/11/04 07:00:14;;;;;;;4.80;0.90;;;8.70;99.90;;;;;;5052996;28;20045;-66
2022/11/04 07:02:39;;;;;;;3.30;1.25;;;8.70;99.90;;;;;;5063439;28;20456;-65
2022/11/04 07:05:06;;;;;;;2.15;1.10;;;8.70;99.90;;;;;;5054253;28;20690;-66
2022/11/04 07:07:31;;;;;;;3.13;1.23;;;8.70;99.90;;;;;;5068282;28;20576;-66
2022/11/04 07:09:57;;;;;;;4.00;1.50;;;8.70;99.90;;;;;;5059153;28;20063;-66
2022/11/04 07:12:23;;;;;;;3.70;1.85;;;8.70;99.90;;;;;;5064638;28;20063;-66
2022/11/04 07:14:50;;;;;;;3.83;1.92;;;8.70;99.90;;;;;;5037970;28;20057;-67
2022/11/04 07:17:16;;;;;;;5.28;2.35;;;8.70;99.90;;;;;;5067376;28;20052;-66
2022/11/04 07:19:42;;;;;;;4.07;2.10;;;8.70;99.90;;;;;;5028476;28;20049;-66
2022/11/04 07:22:07;;;;;;;3.53;1.98;;;8.80;99.90;;;;;;5059863;28;20040;-64
2022/11/04 07:24:34;;;;;;;3.53;1.83;;;8.80;99.90;;;;;;5060609;28;20226;-63
2022/11/04 07:27:00;;;;;;;5.70;1.80;;;8.90;99.90;;;;;;5061766;28;20052;-64
2022/11/04 07:29:26;;;;;;;4.95;1.80;;;8.80;99.90;;;;;;5064944;28;20051;-64
2022/11/04 07:31:51;;;;;;;3.22;1.80;;;8.90;99.90;;;;;;5058883;28;20056;-63
2022/11/04 07:34:17;;;;;;;4.53;1.63;;;8.90;99.90;;;;;;5081494;28;20044;-63
2022/11/04 07:36:43;;;;;;;3.10;1.73;;;8.90;99.90;;;;;;5050307;28;20064;-63
2022/11/04 07:39:08;;;;;;;1.67;1.20;;;8.90;99.90;;;;;;5078685;28;20139;-63
2022/11/04 07:41:35;;;;;;;4.07;1.58;;;8.90;99.90;;;;;;5069554;28;20053;-63
2022/11/04 07:44:04;;;;;;;2.08;1.40;;;8.90;99.90;;;;;;5064465;28;20040;-63
2022/11/04 07:46:30;;;;;;;2.35;1.33;;;8.90;99.90;;;;;;5049951;28;20059;-63
2022/11/04 07:48:57;;;;;;;3.25;2.08;;;8.90;99.90;;;;;;5058711;28;20061;-63
2022/11/04 07:51:24;;;;;;;4.97;1.75;;;8.80;99.90;;;;;;5040466;28;20075;-64
2022/11/04 07:53:50;;;;;;;4.13;1.50;;;8.80;99.90;;;;;;5068913;28;20075;-63
2022/11/04 07:56:15;;;;;;;4.55;1.45;;;8.90;99.90;;;;;;5067286;28;20059;-63
2022/11/04 07:58:41;;;;;;;2.88;1.90;;;8.90;99.90;;;;;;5077861;28;20048;-64
2022/11/04 08:01:17;;;;;;;4.43;1.55;;;8.90;99.90;;;;;;5046796;28;20079;-64
2022/11/04 08:03:43;;;;;;;1.88;1.42;;;9.10;99.90;;;;;;5060407;28;20048;-65
2022/11/04 08:06:11;;;;;;;2.83;1.67;;;9.10;99.90;;;;;;5049238;28;20052;-66
2022/11/04 08:08:37;;;;;;;4.13;1.80;;;9.00;99.90;;;;;;5070208;28;20059;-65
2022/11/04 08:11:12;;;;;;;4.38;1.88;;;9.20;99.90;;;;;;5064387;28;20044;-65
2022/11/04 08:13:38;;;;;;;3.50;1.90;;;9.10;99.90;;;;;;5068360;28;20056;-65
2022/11/04 08:16:12;;;;;;;6.65;2.10;;;9.10;99.90;;;;;;5040072;28;20152;-72
2022/11/04 08:18:39;;;;;;;4.63;1.98;;;9.20;99.90;;;;;;5047638;28;20521;-67
2022/11/04 08:21:05;;;;;;;4.63;2.47;;;9.30;99.90;;;;;;5077087;28;20131;-65
2022/11/04 08:23:31;;;;;;;5.18;1.70;;;9.30;99.90;;;;;;5084242;28;20543;-66
2022/11/04 08:25:58;;;;;;;4.03;2.10;;;9.40;99.90;;;;;;5077236;28;20135;-65
2022/11/04 08:28:24;;;;;;;4.53;1.90;;;9.50;99.90;;;;;;5045859;28;20052;-66
2022/11/04 08:30:58;;;;;;;5.38;1.90;;;9.50;99.90;;;;;;5050101;28;20074;-65
2022/11/04 08:33:25;;;;;;;3.60;1.80;;;9.50;99.90;;;;;;5041798;28;20053;-66
2022/11/04 08:35:51;;;;;;;3.45;1.80;;;9.60;99.90;;;;;;5035491;28;20064;-66
2022/11/04 08:38:17;;;;;;;5.80;2.22;;;9.60;99.90;;;;;;5067133;28;20075;-66
2022/11/04 08:40:43;;;;;;;3.85;2.17;;;9.70;99.90;;;;;;5036675;28;20061;-64
2022/11/04 08:43:09;;;;;;;3.70;1.83;;;9.80;99.90;;;;;;5058831;28;20054;-64
2022/11/04 08:45:41;;;;;;;5.97;2.03;;;9.80;99.90;;;;;;5059395;28;20060;-65
2022/11/04 08:48:06;;;;;;;3.97;1.80;;;9.80;99.90;;;;;;5074360;28;20064;-63
2022/11/04 08:50:32;;;;;;;6.47;2.03;;;9.90;99.90;;;;;;5052835;28;20052;-61
2022/11/04 08:52:58;;;;;;;4.82;1.80;;;9.90;99.90;;;;;;5064997;28;20040;-65
2022/11/04 08:55:23;;;;;;;5.78;2.00;;;10.00;99.90;;;;;;5072641;28;20114;-64
2022/11/04 08:57:49;;;;;;;5.97;1.90;;;10.00;99.90;;;;;;5081037;28;20036;-64
2022/11/04 09:00:16;;;;;;;4.28;1.50;;;10.10;99.90;;;;;;5052151;28;20090;-64
2022/11/04 09:02:42;;;;;;;3.90;1.48;;;10.10;99.90;;;;;;5058617;28;20048;-64
2022/11/04 09:05:08;;;;;;;4.72;1.70;;;10.20;99.90;;;;;;5071286;28;20058;-64
2022/11/04 09:07:36;;;;;;;5.40;2.63;;;10.30;99.90;;;;;;5075825;28;20057;-64
2022/11/04 09:10:04;;;;;;;3.40;1.75;;;10.30;99.90;;;;;;5063037;28;20570;-64
2022/11/04 09:12:30;;;;;;;4.30;1.95;;;10.30;99.90;;;;;;5056211;28;20052;-64
2022/11/04 09:14:56;;;;;;;2.72;1.83;;;10.30;99.90;;;;;;5065590;28;20070;-64
2022/11/04 09:17:22;;;;;;;13.50;2.47;;;10.40;99.90;;;;;;5063988;28;20043;-64
2022/11/04 09:19:48;;;;;;;3.20;1.80;;;10.50;99.90;;;;;;5057004;28;20052;-64
2022/11/04 09:22:14;;;;;;;4.20;2.00;;;10.40;99.90;;;;;;5031964;28;20811;-64
2022/11/04 09:24:40;;;;;;;5.03;1.95;;;10.30;99.90;;;;;;5078612;28;20053;-64
2022/11/04 09:27:05;;;;;;;5.65;2.38;;;10.30;99.90;;;;;;5060674;28;20115;-64
2022/11/04 09:29:32;;;;;;;6.38;2.00;;;10.40;99.90;;;;;;5068448;28;20076;-64
2022/11/04 09:32:00;;;;;;;4.20;2.38;;;10.30;99.90;;;;;;5075912;28;20056;-64
2022/11/04 09:34:26;;;;;;;4.35;2.25;;;10.40;99.90;;;;;;5060725;28;20037;-64
2022/11/04 09:36:55;;;;;;;7.00;2.88;;;10.30;99.90;;;;;;5048127;28;20056;-64
2022/11/04 09:39:20;;;;;;;6.32;2.60;;;10.30;99.90;;;;;;5065873;28;20045;-62
2022/11/04 09:41:52;;;;;;;6.15;3.47;;;10.40;99.90;;;;;;5037091;28;20063;-63
2022/11/04 09:44:24;;;;;;;5.47;2.90;;;10.40;99.90;;;;;;5075618;28;20378;-64
2022/11/04 09:46:54;;;;;;;3.90;2.78;;;10.40;99.90;;;;;;5059597;28;20063;-64
2022/11/04 09:49:20;;;;;;;7.40;3.60;;;10.50;99.90;;;;;;5073641;28;20032;-63
2022/11/04 09:51:47;;;;;;;7.32;3.60;;;10.70;99.90;;;;;;5038709;28;20316;-64
2022/11/04 09:54:25;;;;;;;6.93;4.05;;;10.80;99.90;;;;;;5073252;28;20046;-64
2022/11/04 09:56:54;;;;;;;7.68;5.00;;;10.80;99.90;;;;;;5062877;28;20045;-65
2022/11/04 09:59:28;;;;;;;8.13;5.20;;;11.00;99.90;;;;;;5053591;28;20048;-64
2022/11/04 10:02:33;;;;;;;9.27;5.15;;;11.10;99.90;;;;;;5065274;28;20587;-64
2022/11/04 10:05:20;;;;;;;10.40;5.63;;;11.20;99.90;;;;;;5088654;28;20044;-64
2022/11/04 10:07:58;;;;;;;8.15;5.28;;;11.20;99.90;;;;;;5046915;28;20044;-64
2022/11/04 10:10:37;;;;;;;8.13;5.50;;;11.10;99.90;;;;;;5061537;28;20049;-65
2022/11/04 10:13:05;;;;;;;9.52;6.25;;;11.00;99.90;;;;;;5056921;28;20061;-64
2022/11/04 10:15:52;;;;;;;9.35;6.45;;;10.90;99.90;;;;;;5056362;28;20056;-64
2022/11/04 10:18:47;;;;;;;11.10;6.57;;;10.90;99.90;;;;;;5047620;28;20059;-64
2022/11/04 10:21:21;;;;;;;10.43;6.43;;;11.10;99.90;;;;;;5056134;28;20369;-64
2022/11/04 10:24:11;;;;;;;11.38;7.55;;;11.20;99.90;;;;;;5066667;28;20040;-65
2022/11/04 10:27:05;;;;;;;9.93;6.37;;;11.40;99.90;;;;;;5060838;28;20051;-65
2022/11/04 10:29:35;;;;;;;9.77;5.95;;;11.50;99.90;;;;;;5075486;28;20282;-65
2022/11/04 10:32:05;;;;;;;8.18;5.60;;;11.50;99.90;;;;;;5085524;28;20052;-65
2022/11/04 10:34:46;;;;;;;;;;;11.60;99.90;;;;;;5078648;28;20055;-65
2022/11/04 10:37:12;;;;;;;8.23;6.13;;;11.60;99.90;;;;;;5052944;28;19924;-64
2022/11/04 10:39:44;;;;;;;11.73;6.75;;;11.60;99.90;;;;;;5057485;28;20085;-64
2022/11/04 10:42:17;;;;;;;10.75;6.00;;;11.50;99.90;;;;;;5063388;28;20052;-64
2022/11/04 10:44:45;;;;;;;9.07;6.32;;;11.60;99.90;;;;;;5068365;28;20051;-64
2022/11/04 10:47:56;;;;;;;8.75;5.45;;;11.50;99.90;;;;;;5060534;28;20115;-64
2022/11/04 10:50:27;;;;;;;8.70;6.57;;;11.30;99.90;;;;;;5046938;28;20041;-64
2022/11/04 10:53:08;;;;;;;9.30;6.00;;;11.40;99.90;;;;;;5076189;28;20052;-64
2022/11/04 10:55:52;;;;;;;9.15;5.72;;;11.50;99.90;;;;;;5056948;28;20146;-64
2022/11/04 10:58:23;;;;;;;10.63;6.70;;;11.60;99.90;;;;;;5063651;28;20534;-64
2022/11/04 11:00:50;;;;;;;11.80;6.15;;;11.70;99.90;;;;;;5071734;28;20117;-64
2022/11/04 11:03:33;;;;;;;9.40;6.80;;;11.90;99.90;;;;;;5062761;28;20449;-64
2022/11/04 11:06:30;;;;;;;9.90;6.10;;;12.00;99.90;;;;;;5071768;28;20051;-65
2022/11/04 11:09:11;;;;;;;10.73;6.13;;;12.00;99.90;;;;;;5061718;28;20044;-64
2022/11/04 11:11:47;;;;;;;11.45;6.75;;;12.00;99.90;;;;;;5068466;28;20051;-65
2022/11/04 11:14:34;;;;;;;9.85;6.32;;;12.00;99.90;;;;;;5062171;28;20058;-64
2022/11/04 11:17:17;;;;;;;9.18;5.85;;;12.20;99.90;;;;;;5051137;28;20082;-64
2022/11/04 11:19:58;;;;;;;10.95;7.03;;;12.50;99.90;;;;;;5069225;28;20078;-65
2022/11/04 11:22:38;;;;;;;9.50;6.43;;;12.60;99.90;;;;;;5070847;28;20611;-63
2022/11/04 11:25:30;;;;;;;10.98;6.07;;;12.70;99.90;;;;;;5061572;28;20049;-64
2022/11/04 11:28:00;;;;;;;10.45;6.78;;;12.90;99.90;;;;;;5042438;28;20557;-62
2022/11/04 11:30:52;;;;;;;12.15;7.40;;;12.90;99.90;;;;;;5070115;28;20074;-63
2022/11/04 11:33:27;;;;;;;11.30;6.85;;;12.90;99.90;;;;;;5060404;28;20569;-63
2022/11/04 11:36:10;;;;;;;9.13;6.38;;;12.90;99.90;;;;;;5070850;28;20543;-63
2022/11/04 11:38:38;;;;;;;9.45;5.82;;;12.70;99.90;;;;;;5062398;28;20315;-63
2022/11/04 11:41:09;;;;;;;8.60;4.63;;;12.60;99.90;;;;;;5071458;28;20053;-63
2022/11/04 11:43:42;;;;;;;8.70;4.78;;;12.60;99.90;;;;;;5045155;28;20059;-63
2022/11/04 11:46:10;;;;;;;9.23;4.05;;;12.60;99.90;;;;;;5052882;28;20166;-63
2022/11/04 11:48:42;;;;;;;6.90;5.07;;;12.60;99.90;;;;;;5060455;28;20220;-62
2022/11/04 11:51:21;;;;;;;14.68;6.72;;;12.80;99.90;;;;;;5051509;28;20083;-63
2022/11/04 11:54:21;;;;;;;9.30;4.70;;;12.90;99.90;;;;;;5052699;28;20049;-63
2022/11/04 11:56:51;;;;;;;9.48;4.43;;;12.90;99.90;;;;;;5052045;28;20075;-63
2022/11/04 11:59:36;;;;;;;;;;;12.90;99.90;;;;;;5069094;28;20052;-63
2022/11/04 12:02:13;;;;;;;8.43;4.72;;;12.90;99.90;;;;;;5049202;28;20204;-63
2022/11/04 12:04:40;;;;;;;9.05;4.97;;;13.00;99.90;;;;;;5054754;28;20062;-63
2022/11/04 12:07:27;;;;;;;7.20;3.50;;;13.10;99.90;;;;;;5067854;28;20083;-63
2022/11/04 12:10:30;;;;;;;8.25;3.50;;;13.20;99.90;;;;;;5091778;28;20043;-63
2022/11/04 12:13:27;;;;;;;8.27;3.83;;;13.40;99.90;;;;;;5056207;28;20064;-63
2022/11/04 12:16:06;;;;;;;10.88;3.25;;;13.40;99.90;;;;;;5070848;28;20128;-63
2022/11/04 12:18:31;;;;;;;7.80;3.25;;;13.40;99.90;;;;;;5078892;28;20079;-63
2022/11/04 12:21:23;;;;;;;6.15;2.30;;;13.20;99.90;;;;;;5075081;28;20048;-63
2022/11/04 12:24:27;;;;;;;8.10;2.65;;;13.10;99.90;;;;;;5081297;28;20058;-62
2022/11/04 12:27:28;;;;;;;7.15;3.47;;;13.00;99.90;;;;;;4966849;28;20050;-62
2022/11/04 12:30:12;;;;;;;6.32;3.10;;;12.90;99.90;;;;;;4968419;28;20110;-62
2022/11/04 12:32:40;;;;;;;11.60;3.42;;;12.70;99.90;;;;;;4954296;28;20224;-62
2022/11/04 12:35:24;;;;;;;5.95;1.70;;;12.70;99.90;;;;;;4960003;28;20683;-62
2022/11/04 12:37:59;;;;;;;7.05;1.25;;;12.50;99.90;;;;;;4964335;28;20055;-62
2022/11/04 12:40:28;;;;;;;3.75;1.20;;;12.50;99.90;;;;;;4973609;28;20537;-63
2022/11/04 12:43:02;;;;;;;5.57;1.10;;;12.10;99.90;;;;;;4948694;28;20054;-62
2022/11/04 12:45:46;;;;;;;7.75;1.17;;;12.00;99.90;;;;;;4971094;28;20051;-63
2022/11/04 12:48:33;;;;;;;3.05;1.20;;;11.80;99.90;;;;;;4919796;28;20195;-65
2022/11/04 12:51:13;;;;;;;6.32;1.33;;;11.60;99.90;;;;;;4948983;28;20074;-63
2022/11/04 12:54:22;;;;;;;2.00;0.80;;;11.30;99.90;;;;;;4977434;28;20058;-63
2022/11/04 12:57:14;;;;;;;1.65;0.85;;;11.20;99.90;;;;;;4910576;29;20063;-63
2022/11/04 12:59:52;;;;;;;4.05;1.13;;;11.00;99.90;;;;;;4899702;29;20063;-63
2022/11/04 13:02:49;;;;;;;3.05;0.98;;;11.00;99.90;;;;;;4985387;28;20058;-63
2022/11/04 13:05:27;;;;;;;7.22;1.13;;;10.90;99.90;;;;;;4969646;28;20140;-63
2022/11/04 13:08:08;;;;;;;8.00;1.77;;;10.80;99.90;;;;;;4974479;28;20061;-63
2022/11/04 13:10:45;;;;;;;3.65;1.17;;;10.80;99.90;;;;;;4983135;28;20498;-63
2022/11/04 13:13:14;;;;;;;2.20;0.77;;;10.80;99.90;;;;;;4938663;28;20070;-65
2022/11/04 13:15:47;;;;;;;2.58;1.00;;;10.80;99.90;;;;;;4975716;28;20042;-64
2022/11/04 13:18:19;;;;;;;7.50;1.38;;;10.80;99.90;;;;;;4984182;28;20065;-64
2022/11/04 13:21:02;;;;;;;2.75;0.90;;;10.90;99.90;;;;;;4968147;28;20043;-64
2022/11/04 13:23:38;;;;;;;2.65;1.30;;;10.90;99.90;;;;;;4992080;28;20045;-66
2022/11/04 13:26:10;;;;;;;6.63;1.50;;;11.00;99.90;;;;;;4968742;28;20062;-63
2022/11/04 13:28:40;;;;;;;4.93;1.40;;;11.10;99.90;;;;;;4979472;28;20096;-63
2022/11/04 13:31:47;;;;;;;3.83;1.40;;;11.10;99.90;;;;;;4972467;28;20050;-62
2022/11/04 13:34:21;;;;;;;3.30;0.90;;;11.00;99.90;;;;;;5058809;28;20123;-63
2022/11/04 13:36:51;;;;;;;4.72;1.20;;;10.90;99.90;;;;;;5063157;28;20063;-63
2022/11/04 13:39:32;;;;;;;4.13;1.00;;;10.90;99.90;;;;;;5056698;28;20068;-63
2022/11/04 13:42:18;;;;;;;3.33;1.10;;;10.90;99.90;;;;;;5049637;28;20048;-63
2022/11/04 13:44:47;;;;;;;4.80;1.20;;;10.90;99.90;;;;;;5071548;28;20045;-63
2022/11/04 13:47:23;;;;;;;3.58;1.20;;;10.80;99.90;;;;;;5043551;28;20048;-63
2022/11/04 13:49:54;;;;;;;2.65;0.90;;;10.70;99.90;;;;;;5056664;28;20051;-63